Time;durP1;ratioP1;P1;durP2;ratioP2;P2;SDS_P1;SDS_P2;PMS_P1;PMS_P2;Temp;Humidity;BMP_temperature;BMP_pressure;BME280_temperature;BME280_humidity;BME280_pressure;Samples;Min_cycle;Max_cycle;Signal;HPM_P1;HPM_P2
2021/06/04 00:00:30;;;;;;;17.33;7.93;;;;;;;;;;5036253;28;20024;-66
2021/06/04 00:02:57;;;;;;;16.03;7.67;;;;;;;;;;5028775;28;20042;-66
2021/06/04 00:05:24;;;;;;;19.23;7.77;;;;;;;;;;5027503;28;20103;-66
2021/06/04 00:07:50;;;;;;;18.83;8.30;;;;;;;;;;5031995;28;20018;-66
2021/06/04 00:10:19;;;;;;;16.87;7.43;;;;;;;;;;5041067;28;20032;-66
2021/06/04 00:12:44;;;;;;;17.73;8.63;;;;;;;;;;5026062;28;20061;-66
2021/06/04 00:15:15;;;;;;;17.60;7.90;;;;;;;;;;5036112;28;20037;-67
2021/06/04 00:17:42;;;;;;;17.40;8.23;;;;;;;;;;5022095;28;20474;-66
2021/06/04 00:20:11;;;;;;;20.47;8.13;;;;;;;;;;5021755;28;20036;-66
2021/06/04 00:22:36;;;;;;;17.03;8.43;;;;;;;;;;5013641;28;20443;-67
2021/06/04 00:25:02;;;;;;;17.63;8.30;;;;;;;;;;5027209;28;20041;-66
2021/06/04 00:27:27;;;;;;;18.17;8.43;;;;;;;;;;5030171;28;20032;-67
2021/06/04 00:29:52;;;;;;;16.63;8.47;;;;;;;;;;5026268;28;20025;-66
2021/06/04 00:32:19;;;;;;;16.97;8.03;;;;;;;;;;5031979;28;20021;-66
2021/06/04 00:34:45;;;;;;;14.30;7.30;;;;;;;;;;5036283;28;20438;-66
2021/06/04 00:37:10;;;;;;;15.20;7.83;;;;;;;;;;5027025;28;20112;-66
2021/06/04 00:39:37;;;;;;;14.33;7.33;;;;;;;;;;5031291;28;20093;-67
2021/06/04 00:42:28;;;;;;;16.10;7.57;;;;;;;;;;5026703;28;20049;-67
2021/06/04 00:44:55;;;;;;;14.53;7.87;;;;;;;;;;5016862;28;20589;-67
2021/06/04 00:47:21;;;;;;;15.80;7.73;;;;;;;;;;5030127;28;20284;-66
2021/06/04 00:49:46;;;;;;;15.90;7.67;;;;;;;;;;5034220;28;20029;-67
2021/06/04 00:52:13;;;;;;;14.77;7.57;;;;;;;;;;5026604;28;20048;-66
2021/06/04 00:54:40;;;;;;;14.47;7.73;;;;;;;;;;5031125;28;20450;-67
2021/06/04 00:57:05;;;;;;;13.20;7.80;;;;;;;;;;5015035;28;20080;-67
2021/06/04 00:59:37;;;;;;;18.33;8.17;;;;;;;;;;5032920;28;20016;-67
2021/06/04 01:02:03;;;;;;;14.23;7.87;;;;;;;;;;5036846;28;20052;-67
2021/06/04 01:04:28;;;;;;;14.17;8.20;;;;;;;;;;5032698;28;20057;-66
2021/06/04 01:06:59;;;;;;;15.67;7.60;;;;;;;;;;5031828;28;20102;-66
2021/06/04 01:09:45;;;;;;;14.17;8.00;;;;;;;;;;5031502;28;20069;-66
2021/06/04 01:12:21;;;;;;;14.90;7.73;;;;;;;;;;5030693;28;20053;-66
2021/06/04 01:15:16;;;;;;;19.40;8.23;;;;;;;;;;5019173;28;20117;-66
2021/06/04 01:18:00;;;;;;;16.63;8.23;;;;;;;;;;4961982;28;20047;-67
2021/06/04 01:20:27;;;;;;;17.77;8.60;;;;;;;;;;5033707;28;20027;-66
2021/06/04 01:23:27;;;;;;;17.27;8.97;;;;;;;;;;5024029;28;20634;-66
2021/06/04 01:26:19;;;;;;;17.33;8.03;;;;;;;;;;4947439;28;20468;-66
2021/06/04 01:28:47;;;;;;;19.63;8.37;;;;;;;;;;4954178;28;20489;-66
2021/06/04 01:31:26;;;;;;;16.33;8.80;;;;;;;;;;4950273;28;20119;-66
2021/06/04 01:33:53;;;;;;;16.33;8.07;;;;;;;;;;4950910;29;20039;-66
2021/06/04 01:36:21;;;;;;;21.17;9.17;;;;;;;;;;4957912;28;20046;-66
2021/06/04 01:38:47;;;;;;;21.60;9.63;;;;;;;;;;4957810;28;20407;-67
2021/06/04 01:41:14;;;;;;;19.93;9.27;;;;;;;;;;4957369;28;20054;-66
2021/06/04 01:43:42;;;;;;;19.93;9.87;;;;;;;;;;4964434;28;20038;-66
2021/06/04 01:46:10;;;;;;;21.60;8.83;;;;;;;;;;4947707;28;20038;-66
2021/06/04 01:48:38;;;;;;;20.07;9.20;;;;;;;;;;4960008;28;20045;-66
2021/06/04 01:51:06;;;;;;;20.30;9.17;;;;;;;;;;4950561;28;20385;-66
2021/06/04 01:53:36;;;;;;;20.97;8.87;;;;;;;;;;4951227;28;20531;-67
2021/06/04 01:56:04;;;;;;;20.80;9.87;;;;;;;;;;4949900;28;20124;-66
2021/06/04 01:58:34;;;;;;;22.30;9.73;;;;;;;;;;4952229;28;20075;-66
2021/06/04 02:01:20;;;;;;;23.27;10.17;;;;;;;;;;5016595;28;20041;-66
2021/06/04 02:03:46;;;;;;;23.90;10.07;;;;;;;;;;5042686;28;20088;-66
2021/06/04 02:06:12;;;;;;;24.53;10.43;;;;;;;;;;5027114;28;20042;-66
2021/06/04 02:08:49;;;;;;;23.83;9.30;;;;;;;;;;5021063;28;20647;-66
2021/06/04 02:11:16;;;;;;;27.63;10.37;;;;;;;;;;5030721;28;20025;-66
2021/06/04 02:13:42;;;;;;;25.77;9.03;;;;;;;;;;5025548;28;20037;-66
2021/06/04 02:16:24;;;;;;;28.03;10.50;;;;;;;;;;5028656;28;20036;-66
2021/06/04 02:19:22;;;;;;;29.58;10.70;;;;;;;;;;5031457;28;20415;-66
2021/06/04 02:22:07;;;;;;;31.40;11.00;;;;;;;;;;4989242;28;20414;-66
2021/06/04 02:24:38;;;;;;;28.33;10.17;;;;;;;;;;5020452;28;20038;-66
2021/06/04 02:27:08;;;;;;;30.53;10.57;;;;;;;;;;5033129;28;20716;-66
2021/06/04 02:29:42;;;;;;;31.77;11.00;;;;;;;;;;5047146;28;20018;-66
2021/06/04 02:32:17;;;;;;;28.43;10.43;;;;;;;;;;5032385;28;20514;-66
2021/06/04 02:34:54;;;;;;;33.27;11.30;;;;;;;;;;5022822;28;20339;-66
2021/06/04 02:37:25;;;;;;;28.97;11.37;;;;;;;;;;5029462;28;20022;-66
2021/06/04 02:39:52;;;;;;;24.73;10.17;;;;;;;;;;5049296;28;20021;-66
2021/06/04 02:42:20;;;;;;;20.97;9.07;;;;;;;;;;5029045;28;20040;-66
2021/06/04 02:44:49;;;;;;;25.07;10.30;;;;;;;;;;5020749;28;20721;-67
2021/06/04 02:47:17;;;;;;;26.43;10.43;;;;;;;;;;5034049;28;20391;-67
2021/06/04 02:49:42;;;;;;;27.57;10.83;;;;;;;;;;5029634;28;20045;-67
2021/06/04 02:52:23;;;;;;;36.03;11.53;;;;;;;;;;5031576;28;20485;-67
2021/06/04 02:54:48;;;;;;;28.77;11.07;;;;;;;;;;5029220;28;20484;-67
2021/06/04 02:57:15;;;;;;;34.23;11.17;;;;;;;;;;5035670;28;20101;-67
2021/06/04 02:59:42;;;;;;;28.23;10.67;;;;;;;;;;5027214;28;20021;-67
2021/06/04 03:02:16;;;;;;;27.37;10.93;;;;;;;;;;5026695;28;20041;-67
2021/06/04 03:04:49;;;;;;;29.60;10.17;;;;;;;;;;5015716;28;20030;-66
2021/06/04 03:07:19;;;;;;;28.93;11.93;;;;;;;;;;5031598;28;20065;-66
2021/06/04 03:09:45;;;;;;;26.63;11.40;;;;;;;;;;5029488;28;20105;-66
2021/06/04 03:12:15;;;;;;;34.17;11.60;;;;;;;;;;5030091;28;20176;-66
2021/06/04 03:14:41;;;;;;;30.70;11.93;;;;;;;;;;5035286;28;20038;-67
2021/06/04 03:17:08;;;;;;;30.90;12.30;;;;;;;;;;5033795;28;20378;-67
2021/06/04 03:19:34;;;;;;;38.47;12.67;;;;;;;;;;5045509;28;20082;-67
2021/06/04 03:22:02;;;;;;;30.77;11.83;;;;;;;;;;5028127;28;20021;-67
2021/06/04 03:24:30;;;;;;;30.80;12.13;;;;;;;;;;5036357;28;20022;-67
2021/06/04 03:26:57;;;;;;;35.00;12.47;;;;;;;;;;5029101;28;20105;-67
2021/06/04 03:29:23;;;;;;;30.73;12.33;;;;;;;;;;5025765;28;20374;-67
2021/06/04 03:31:53;;;;;;;27.30;12.27;;;;;;;;;;5029433;28;20022;-67
2021/06/04 03:34:19;;;;;;;27.70;10.97;;;;;;;;;;5019346;28;20048;-67
2021/06/04 03:36:46;;;;;;;26.13;11.07;;;;;;;;;;5027224;28;20099;-67
2021/06/04 03:39:14;;;;;;;26.40;11.90;;;;;;;;;;5023819;28;20450;-67
2021/06/04 03:41:40;;;;;;;23.77;11.17;;;;;;;;;;5032447;28;20022;-67
2021/06/04 03:44:07;;;;;;;21.93;10.77;;;;;;;;;;5033673;28;20017;-67
2021/06/04 03:46:32;;;;;;;22.60;11.20;;;;;;;;;;5047642;28;20036;-67
2021/06/04 03:48:58;;;;;;;20.20;10.50;;;;;;;;;;5022441;28;20509;-67
2021/06/04 03:51:27;;;;;;;22.23;10.97;;;;;;;;;;5025875;28;20024;-67
2021/06/04 03:53:53;;;;;;;20.50;10.37;;;;;;;;;;5028085;28;20096;-67
2021/06/04 03:56:23;;;;;;;20.77;10.60;;;;;;;;;;5034710;28;20418;-67
2021/06/04 03:58:49;;;;;;;21.10;10.43;;;;;;;;;;5034961;28;20021;-67
2021/06/04 04:01:16;;;;;;;24.90;11.60;;;;;;;;;;5027339;28;20096;-67
2021/06/04 04:03:42;;;;;;;19.60;9.97;;;;;;;;;;5029769;28;20030;-67
2021/06/04 04:06:08;;;;;;;21.57;10.03;;;;;;;;;;5019781;28;20462;-67
2021/06/04 04:08:34;;;;;;;22.43;10.00;;;;;;;;;;5042578;28;20115;-67
2021/06/04 04:10:59;;;;;;;19.80;10.33;;;;;;;;;;5034034;28;20075;-67
2021/06/04 04:13:26;;;;;;;23.17;10.30;;;;;;;;;;5034050;28;20036;-67
2021/06/04 04:15:51;;;;;;;20.03;10.27;;;;;;;;;;5032412;28;20029;-67
2021/06/04 04:18:17;;;;;;;20.73;11.20;;;;;;;;;;5025943;28;20414;-67
2021/06/04 04:20:46;;;;;;;17.40;9.37;;;;;;;;;;5028374;28;20021;-67
2021/06/04 04:23:12;;;;;;;18.30;10.80;;;;;;;;;;5038950;28;20096;-67
2021/06/04 04:25:39;;;;;;;17.90;10.73;;;;;;;;;;5023583;28;20103;-67
2021/06/04 04:28:06;;;;;;;17.03;10.17;;;;;;;;;;5026778;28;20112;-67
2021/06/04 04:30:31;;;;;;;19.87;10.83;;;;;;;;;;5023943;28;20024;-67
2021/06/04 04:32:56;;;;;;;17.67;9.73;;;;;;;;;;5030080;28;20013;-67
2021/06/04 04:35:23;;;;;;;18.13;10.80;;;;;;;;;;5025436;28;20073;-67
2021/06/04 04:37:49;;;;;;;20.33;10.23;;;;;;;;;;5017081;28;20025;-67
2021/06/04 04:40:15;;;;;;;15.97;9.03;;;;;;;;;;5024942;28;20404;-67
2021/06/04 04:42:42;;;;;;;17.60;9.87;;;;;;;;;;5022372;28;20017;-67
2021/06/04 04:45:09;;;;;;;18.37;10.10;;;;;;;;;;5025011;28;20017;-67
2021/06/04 04:47:34;;;;;;;18.57;10.67;;;;;;;;;;5045979;28;20028;-67
2021/06/04 04:49:59;;;;;;;21.03;11.20;;;;;;;;;;5026262;28;20083;-67
2021/06/04 04:52:25;;;;;;;21.70;11.30;;;;;;;;;;5029392;28;20109;-67
2021/06/04 04:54:51;;;;;;;20.60;10.33;;;;;;;;;;5020933;28;20030;-67
2021/06/04 04:57:17;;;;;;;21.63;11.40;;;;;;;;;;5023157;28;20033;-67
2021/06/04 04:59:42;;;;;;;20.93;11.60;;;;;;;;;;5029056;28;20040;-67
2021/06/04 05:02:08;;;;;;;24.57;11.40;;;;;;;;;;5033529;28;20034;-67
2021/06/04 05:04:35;;;;;;;22.30;11.03;;;;;;;;;;5013652;28;20105;-67
2021/06/04 05:07:00;;;;;;;22.30;12.37;;;;;;;;;;5028994;28;20033;-67
2021/06/04 05:09:25;;;;;;;22.70;12.30;;;;;;;;;;5012959;28;20055;-67
2021/06/04 05:11:51;;;;;;;23.50;11.93;;;;;;;;;;5040574;28;20111;-67
2021/06/04 05:14:16;;;;;;;23.53;12.07;;;;;;;;;;5029152;28;20116;-67
2021/06/04 05:16:42;;;;;;;23.47;12.43;;;;;;;;;;5036331;28;20446;-66
2021/06/04 05:19:08;;;;;;;24.80;12.13;;;;;;;;;;5016171;28;20455;-67
2021/06/04 05:21:33;;;;;;;24.03;12.90;;;;;;;;;;5033541;28;20036;-67
2021/06/04 05:23:58;;;;;;;20.70;11.27;;;;;;;;;;5027144;28;20025;-67
2021/06/04 05:26:24;;;;;;;18.07;10.83;;;;;;;;;;5027655;28;20026;-67
2021/06/04 05:28:49;;;;;;;23.10;11.27;;;;;;;;;;5033132;28;20033;-67
2021/06/04 05:31:15;;;;;;;21.17;11.90;;;;;;;;;;5030811;28;20033;-67
2021/06/04 05:33:42;;;;;;;23.13;11.17;;;;;;;;;;5031996;28;20399;-67
2021/06/04 05:36:31;;;;;;;17.80;10.40;;;;;;;;;;5027398;28;20458;-67
2021/06/04 05:38:57;;;;;;;18.77;10.97;;;;;;;;;;5032424;28;20028;-66
2021/06/04 05:41:24;;;;;;;20.87;12.37;;;;;;;;;;5034682;28;20330;-67
2021/06/04 05:43:50;;;;;;;20.43;11.47;;;;;;;;;;5030978;28;20029;-66
2021/06/04 05:46:16;;;;;;;20.00;11.87;;;;;;;;;;5029556;28;20033;-67
2021/06/04 05:48:42;;;;;;;22.97;12.70;;;;;;;;;;5026848;28;20040;-67
2021/06/04 05:51:14;;;;;;;21.67;11.77;;;;;;;;;;5025590;28;20029;-67
2021/06/04 05:53:39;;;;;;;;;;;;;;;;;;5032876;28;20025;-67
2021/06/04 05:56:06;;;;;;;26.57;11.93;;;;;;;;;;5034699;28;19936;-67
2021/06/04 05:58:31;;;;;;;24.27;12.60;;;;;;;;;;5034064;28;20020;-67
2021/06/04 06:00:58;;;;;;;26.70;13.07;;;;;;;;;;5042389;28;20104;-67
2021/06/04 06:03:26;;;;;;;27.27;12.40;;;;;;;;;;5037322;28;20041;-67
2021/06/04 06:05:51;;;;;;;25.40;12.83;;;;;;;;;;5032666;28;20029;-67
2021/06/04 06:08:17;;;;;;;32.43;13.97;;;;;;;;;;5029602;28;20477;-67
2021/06/04 06:10:42;;;;;;;29.80;13.37;;;;;;;;;;5033413;28;20026;-67
2021/06/04 06:13:08;;;;;;;31.13;13.23;;;;;;;;;;5034952;28;20022;-67
2021/06/04 06:15:34;;;;;;;35.40;13.97;;;;;;;;;;5017816;28;20371;-66
2021/06/04 06:17:59;;;;;;;37.80;14.53;;;;;;;;;;5024074;28;20367;-66
2021/06/04 06:20:27;;;;;;;39.83;14.97;;;;;;;;;;5035455;28;20029;-67
2021/06/04 06:22:56;;;;;;;30.70;14.37;;;;;;;;;;5027025;28;20018;-67
2021/06/04 06:25:30;;;;;;;32.60;13.90;;;;;;;;;;5043717;28;20573;-67
2021/06/04 06:27:57;;;;;;;34.37;13.53;;;;;;;;;;5035100;28;20025;-66
2021/06/04 06:30:26;;;;;;;30.20;14.53;;;;;;;;;;5021861;28;20037;-66
2021/06/04 06:32:51;;;;;;;34.53;13.93;;;;;;;;;;5036869;28;20029;-66
2021/06/04 06:35:18;;;;;;;30.23;14.57;;;;;;;;;;5032377;28;20426;-66
2021/06/04 06:37:43;;;;;;;35.77;14.67;;;;;;;;;;5026758;28;20398;-66
2021/06/04 06:40:09;;;;;;;32.10;13.97;;;;;;;;;;5027933;28;20028;-66
2021/06/04 06:42:34;;;;;;;34.97;14.53;;;;;;;;;;5032414;28;20021;-66
2021/06/04 06:45:00;;;;;;;31.23;13.97;;;;;;;;;;5039464;28;20036;-66
2021/06/04 06:47:25;;;;;;;36.93;14.77;;;;;;;;;;5037857;28;20510;-66
2021/06/04 06:49:51;;;;;;;36.17;14.63;;;;;;;;;;5034660;28;20097;-66
2021/06/04 06:52:16;;;;;;;40.70;15.30;;;;;;;;;;5042110;28;20152;-66
2021/06/04 06:54:42;;;;;;;36.13;15.03;;;;;;;;;;5033769;28;20037;-66
2021/06/04 06:57:08;;;;;;;39.55;14.50;;;;;;;;;;5028356;28;20107;-66
2021/06/04 06:59:34;;;;;;;42.50;14.77;;;;;;;;;;5024799;28;20486;-67
2021/06/04 07:02:01;;;;;;;35.70;14.68;;;;;;;;;;5032636;28;20091;-67
2021/06/04 07:04:26;;;;;;;36.83;14.45;;;;;;;;;;5020734;28;20030;-67
2021/06/04 07:06:52;;;;;;;31.13;13.20;;;;;;;;;;5027795;28;20022;-67
2021/06/04 07:09:18;;;;;;;32.03;12.65;;;;;;;;;;5048596;28;20039;-67
2021/06/04 07:11:47;;;;;;;34.22;13.95;;;;;;;;;;5039109;28;20028;-67
2021/06/04 07:14:12;;;;;;;31.35;13.32;;;;;;;;;;5035580;28;20033;-67
2021/06/04 07:16:37;;;;;;;29.17;12.95;;;;;;;;;;5038930;28;20017;-67
2021/06/04 07:19:04;;;;;;;33.22;12.90;;;;;;;;;;5030878;28;20029;-67
2021/06/04 07:21:36;;;;;;;30.27;13.38;;;;;;;;;;5023152;28;20039;-67
2021/06/04 07:24:02;;;;;;;26.17;12.63;;;;;;;;;;5029867;28;20018;-67
2021/06/04 07:26:28;;;;;;;28.13;13.88;;;;;;;;;;5033448;28;20026;-67
2021/06/04 07:29:00;;;;;;;32.58;14.20;;;;;;;;;;5041371;28;20498;-67
2021/06/04 07:31:25;;;;;;;33.55;14.57;;;;;;;;;;5032386;28;20064;-68
2021/06/04 07:33:54;;;;;;;28.85;13.57;;;;;;;;;;5029381;28;20451;-67
2021/06/04 07:36:24;;;;;;;33.58;14.48;;;;;;;;;;5033221;28;20083;-68
2021/06/04 07:38:49;;;;;;;29.67;14.07;;;;;;;;;;5026326;28;20467;-67
2021/06/04 07:41:15;;;;;;;31.35;14.38;;;;;;;;;;5027676;28;20053;-67
2021/06/04 07:43:47;;;;;;;31.42;14.05;;;;;;;;;;5029188;28;20068;-67
2021/06/04 07:46:13;;;;;;;27.70;13.32;;;;;;;;;;5032379;28;20025;-68
2021/06/04 07:48:39;;;;;;;31.52;14.00;;;;;;;;;;5046898;28;20104;-68
2021/06/04 07:51:07;;;;;;;33.03;13.93;;;;;;;;;;5025887;28;20425;-68
2021/06/04 07:53:33;;;;;;;30.77;13.50;;;;;;;;;;5036690;28;20064;-68
2021/06/04 07:55:59;;;;;;;30.02;13.63;;;;;;;;;;5029991;28;20061;-69
2021/06/04 07:58:26;;;;;;;30.85;13.57;;;;;;;;;;5031744;28;20101;-69
2021/06/04 08:00:51;;;;;;;27.73;13.73;;;;;;;;;;5033004;28;20053;-69
2021/06/04 08:03:19;;;;;;;32.08;14.40;;;;;;;;;;5035969;28;20787;-68
2021/06/04 08:05:44;;;;;;;31.23;13.80;;;;;;;;;;5020270;28;20053;-69
2021/06/04 08:08:10;;;;;;;29.92;13.48;;;;;;;;;;5021961;28;20030;-70
2021/06/04 08:10:36;;;;;;;26.77;12.68;;;;;;;;;;5015641;28;20046;-69
2021/06/04 08:13:02;;;;;;;22.13;11.80;;;;;;;;;;5032711;28;20022;-69
2021/06/04 08:15:29;;;;;;;23.77;12.27;;;;;;;;;;5033024;28;20024;-71
2021/06/04 08:17:55;;;;;;;21.02;11.27;;;;;;;;;;5032453;28;20021;-72
2021/06/04 08:20:24;;;;;;;22.45;12.57;;;;;;;;;;5028664;28;20025;-72
2021/06/04 08:22:51;;;;;;;25.20;12.27;;;;;;;;;;5034056;28;20013;-71
2021/06/04 08:25:18;;;;;;;22.70;11.90;;;;;;;;;;5023434;28;20026;-74
2021/06/04 08:27:43;;;;;;;18.88;11.15;;;;;;;;;;5031253;28;20021;-77
2021/06/04 08:30:13;;;;;;;22.73;11.82;;;;;;;;;;5028015;28;20367;-76
2021/06/04 08:32:39;;;;;;;20.27;10.73;;;;;;;;;;5026659;28;20098;-74
2021/06/04 08:35:06;;;;;;;20.33;11.00;;;;;;;;;;5025229;28;20152;-77
2021/06/04 08:37:31;;;;;;;18.88;10.27;;;;;;;;;;5030422;28;20014;-74
2021/06/04 08:39:56;;;;;;;18.17;10.27;;;;;;;;;;5028358;28;20486;-74
2021/06/04 08:42:28;;;;;;;19.67;10.85;;;;;;;;;;5023103;28;20028;-74
2021/06/04 08:45:10;;;;;;;20.90;10.85;;;;;;;;;;5019215;28;20032;-75
2021/06/04 08:47:36;;;;;;;18.50;10.13;;;;;;;;;;5039896;28;20017;-74
2021/06/04 08:50:23;;;;;;;19.83;10.45;;;;;;;;;;5027574;28;20052;-75
2021/06/04 08:53:13;;;;;;;20.38;10.48;;;;;;;;;;5028446;28;20031;-74
2021/06/04 08:55:42;;;;;;;18.55;9.93;;;;;;;;;;5033102;28;20030;-75
2021/06/04 08:58:18;;;;;;;15.60;9.27;;;;;;;;;;5021500;28;20018;-75
2021/06/04 09:01:04;;;;;;;19.17;10.20;;;;;;;;;;5024409;28;20022;-74
2021/06/04 09:03:35;;;;;;;17.92;9.82;;;;;;;;;;5025206;28;20406;-74
2021/06/04 09:06:02;;;;;;;16.63;9.93;;;;;;;;;;5028522;28;20013;-75
2021/06/04 09:08:37;;;;;;;17.40;9.75;;;;;;;;;;5017989;28;20439;-76
2021/06/04 09:11:07;;;;;;;19.75;10.48;;;;;;;;;;5024645;28;20488;-74
2021/06/04 09:13:34;;;;;;;17.90;10.65;;;;;;;;;;5028416;28;20080;-75
2021/06/04 09:16:03;;;;;;;18.38;10.20;;;;;;;;;;5023789;28;20030;-76
2021/06/04 09:18:32;;;;;;;19.95;10.73;;;;;;;;;;5023332;28;20022;-76
2021/06/04 09:21:00;;;;;;;17.80;10.98;;;;;;;;;;5025415;28;20064;-75
2021/06/04 09:23:32;;;;;;;20.10;11.18;;;;;;;;;;5027495;28;20033;-74
2021/06/04 09:25:58;;;;;;;17.75;10.75;;;;;;;;;;5023071;28;20046;-74
2021/06/04 09:28:36;;;;;;;19.65;11.05;;;;;;;;;;5022081;28;20054;-73
2021/06/04 09:31:25;;;;;;;20.25;10.77;;;;;;;;;;5026974;28;20026;-76
2021/06/04 09:33:55;;;;;;;19.30;10.68;;;;;;;;;;5032811;28;20128;-75
2021/06/04 09:36:25;;;;;;;17.17;10.95;;;;;;;;;;5044343;28;20156;-75
2021/06/04 09:39:12;;;;;;;18.02;11.25;;;;;;;;;;5031825;28;20022;-74
2021/06/04 09:41:40;;;;;;;22.42;11.55;;;;;;;;;;5031005;28;20045;-72
2021/06/04 09:44:07;;;;;;;20.60;11.38;;;;;;;;;;5031746;28;20527;-70
2021/06/04 09:46:35;;;;;;;21.80;11.30;;;;;;;;;;5038395;28;20029;-69
2021/06/04 09:49:02;;;;;;;21.10;11.50;;;;;;;;;;5031796;28;20036;-71
2021/06/04 09:51:32;;;;;;;21.60;12.07;;;;;;;;;;5031545;28;20025;-74
2021/06/04 09:54:33;;;;;;;20.60;12.57;;;;;;;;;;5018684;28;20076;-75
2021/06/04 09:57:09;;;;;;;19.48;12.05;;;;;;;;;;4944070;29;20075;-74
2021/06/04 09:59:35;;;;;;;25.08;12.02;;;;;;;;;;4950883;29;20028;-75
2021/06/04 10:02:01;;;;;;;20.70;11.90;;;;;;;;;;4943034;29;20491;-72
2021/06/04 10:04:31;;;;;;;19.25;11.73;;;;;;;;;;4931409;29;20031;-71
2021/06/04 10:07:04;;;;;;;20.50;12.63;;;;;;;;;;4957631;28;20035;-70
2021/06/04 10:09:34;;;;;;;29.73;13.68;;;;;;;;;;4970090;28;20267;-68
2021/06/04 10:12:04;;;;;;;23.02;12.27;;;;;;;;;;4966193;28;20035;-70
2021/06/04 10:14:47;;;;;;;22.47;12.03;;;;;;;;;;4970168;28;20031;-71
2021/06/04 10:17:58;;;;;;;21.55;12.13;;;;;;;;;;4967021;28;20317;-68
2021/06/04 10:20:46;;;;;;;19.52;11.07;;;;;;;;;;4963843;28;20027;-70
2021/06/04 10:23:15;;;;;;;21.45;11.63;;;;;;;;;;4950806;29;20023;-71
2021/06/04 10:25:48;;;;;;;19.98;11.98;;;;;;;;;;4950991;28;20091;-71
2021/06/04 10:28:27;;;;;;;18.40;11.45;;;;;;;;;;4969776;28;20114;-72
2021/06/04 10:30:53;;;;;;;20.42;11.82;;;;;;;;;;4992586;28;20092;-72
2021/06/04 10:33:39;;;;;;;18.92;12.02;;;;;;;;;;5029995;28;20458;-69
2021/06/04 10:36:06;;;;;;;17.42;11.35;;;;;;;;;;4969552;28;20046;-70
2021/06/04 10:38:43;;;;;;;16.77;10.85;;;;;;;;;;4971756;28;20070;-70
2021/06/04 10:41:13;;;;;;;20.00;11.90;;;;;;;;;;4970370;28;20023;-70
2021/06/04 10:43:58;;;;;;;17.30;11.45;;;;;;;;;;4969147;28;20591;-70
2021/06/04 10:46:37;;;;;;;17.88;10.77;;;;;;;;;;4939567;29;20090;-71
2021/06/04 10:49:22;;;;;;;20.92;11.00;;;;;;;;;;4935918;29;20078;-70
2021/06/04 10:51:58;;;;;;;19.00;11.38;;;;;;;;;;4936079;29;20035;-71
2021/06/04 10:54:38;;;;;;;20.15;10.50;;;;;;;;;;4933442;29;20023;-70
2021/06/04 10:57:06;;;;;;;18.98;10.40;;;;;;;;;;4933261;29;20062;-67
2021/06/04 10:59:53;;;;;;;16.77;10.32;;;;;;;;;;4933837;29;20437;-67
2021/06/04 11:02:37;;;;;;;19.00;11.25;;;;;;;;;;4932380;29;20063;-68
2021/06/04 11:05:21;;;;;;;18.60;10.80;;;;;;;;;;4932789;29;20500;-68
2021/06/04 11:08:00;;;;;;;16.33;10.38;;;;;;;;;;4932530;29;20039;-68
2021/06/04 11:10:32;;;;;;;18.73;10.18;;;;;;;;;;4935044;28;20428;-67
2021/06/04 11:13:23;;;;;;;16.35;10.25;;;;;;;;;;5010826;28;20025;-66
2021/06/04 11:16:15;;;;;;;17.88;9.95;;;;;;;;;;4932270;29;20064;-66
2021/06/04 11:18:49;;;;;;;17.73;10.15;;;;;;;;;;4928148;29;20075;-68
2021/06/04 11:21:23;;;;;;;17.17;10.45;;;;;;;;;;4941274;28;20041;-68
2021/06/04 11:23:50;;;;;;;17.67;11.13;;;;;;;;;;4964307;28;20378;-68
2021/06/04 11:26:25;;;;;;;18.77;10.23;;;;;;;;;;4964049;28;20149;-66
2021/06/04 11:28:54;;;;;;;18.85;10.90;;;;;;;;;;4964600;28;20026;-67
2021/06/04 11:31:48;;;;;;;18.02;9.88;;;;;;;;;;4966766;28;20052;-67
2021/06/04 11:34:52;;;;;;;16.05;10.07;;;;;;;;;;4954279;28;20077;-67
2021/06/04 11:37:25;;;;;;;14.82;9.05;;;;;;;;;;4875353;29;20033;-66
2021/06/04 11:39:53;;;;;;;16.95;9.93;;;;;;;;;;4872429;29;20101;-65
2021/06/04 11:42:20;;;;;;;15.32;9.38;;;;;;;;;;4878486;29;20037;-65
2021/06/04 11:44:54;;;;;;;16.42;10.68;;;;;;;;;;4876938;29;20021;-66
2021/06/04 11:47:24;;;;;;;17.33;10.48;;;;;;;;;;4870679;29;20041;-66
2021/06/04 11:50:13;;;;;;;19.45;10.98;;;;;;;;;;4875525;29;20632;-66
2021/06/04 11:52:45;;;;;;;22.92;11.15;;;;;;;;;;4886790;28;20042;-66
2021/06/04 11:55:35;;;;;;;16.38;10.07;;;;;;;;;;4971664;28;20181;-66
2021/06/04 11:58:38;;;;;;;17.50;10.05;;;;;;;;;;4969786;28;20043;-65
2021/06/04 12:01:15;;;;;;;16.65;9.95;;;;;;;;;;4930426;29;20036;-65
2021/06/04 12:03:49;;;;;;;17.48;9.38;;;;;;;;;;4920155;29;20044;-66
2021/06/04 12:06:43;;;;;;;18.00;9.57;;;;;;;;;;4917811;29;20101;-66
2021/06/04 12:09:27;;;;;;;14.55;9.25;;;;;;;;;;4969875;28;20042;-67
2021/06/04 12:12:12;;;;;;;12.38;8.30;;;;;;;;;;4987332;28;20169;-66
2021/06/04 12:14:37;;;;;;;16.17;8.60;;;;;;;;;;4981411;28;20098;-66
2021/06/04 12:17:21;;;;;;;13.63;8.05;;;;;;;;;;4983290;28;20146;-65
2021/06/04 12:19:47;;;;;;;15.05;8.68;;;;;;;;;;4994146;28;20031;-65
2021/06/04 12:22:31;;;;;;;12.02;6.80;;;;;;;;;;4987120;28;20119;-65
2021/06/04 12:24:56;;;;;;;16.15;7.53;;;;;;;;;;4991996;28;20066;-65
2021/06/04 12:27:42;;;;;;;16.83;9.60;;;;;;;;;;4989087;28;20411;-66
2021/06/04 12:30:10;;;;;;;13.43;7.38;;;;;;;;;;4983858;28;20034;-65
2021/06/04 12:32:56;;;;;;;16.05;8.18;;;;;;;;;;5014747;28;20042;-66
2021/06/04 12:35:57;;;;;;;13.15;7.50;;;;;;;;;;5016576;28;20044;-65
2021/06/04 12:38:34;;;;;;;10.93;6.47;;;;;;;;;;4968180;28;20041;-65
2021/06/04 12:41:02;;;;;;;12.75;6.70;;;;;;;;;;4968207;28;20580;-65
2021/06/04 12:43:30;;;;;;;13.63;7.07;;;;;;;;;;4968315;28;20081;-66
2021/06/04 12:45:57;;;;;;;14.50;8.07;;;;;;;;;;4964816;28;20034;-66
2021/06/04 12:48:36;;;;;;;11.80;7.25;;;;;;;;;;4967133;28;20022;-66
2021/06/04 12:51:08;;;;;;;17.25;7.10;;;;;;;;;;4963260;28;20034;-65
2021/06/04 12:53:38;;;;;;;12.15;8.10;;;;;;;;;;4969998;28;20033;-65
2021/06/04 12:56:08;;;;;;;15.75;7.90;;;;;;;;;;4959131;28;20510;-65
2021/06/04 12:58:35;;;;;;;14.77;8.77;;;;;;;;;;4957037;28;20020;-65
2021/06/04 13:01:05;;;;;;;11.65;7.60;;;;;;;;;;4954259;28;20054;-65
2021/06/04 13:03:32;;;;;;;14.95;7.60;;;;;;;;;;4967204;28;20137;-65
2021/06/04 13:05:59;;;;;;;11.57;7.65;;;;;;;;;;4962651;28;20105;-65
2021/06/04 13:08:35;;;;;;;13.65;7.93;;;;;;;;;;4972907;28;20023;-65
2021/06/04 13:11:01;;;;;;;12.75;7.97;;;;;;;;;;4960376;28;20089;-65
2021/06/04 13:13:35;;;;;;;15.82;8.98;;;;;;;;;;5027377;28;20467;-65
2021/06/04 13:16:20;;;;;;;14.32;8.35;;;;;;;;;;5032361;28;20688;-65
2021/06/04 13:18:45;;;;;;;13.35;8.10;;;;;;;;;;5046010;28;20025;-64
2021/06/04 13:21:19;;;;;;;14.00;7.47;;;;;;;;;;5046195;28;20516;-64
2021/06/04 13:23:55;;;;;;;13.05;7.30;;;;;;;;;;5027555;28;20014;-64
2021/06/04 13:26:22;;;;;;;12.05;7.15;;;;;;;;;;5025536;28;20064;-64
2021/06/04 13:28:49;;;;;;;13.93;6.53;;;;;;;;;;5026107;28;20033;-64
2021/06/04 13:31:38;;;;;;;12.80;6.93;;;;;;;;;;5032126;28;20112;-65
2021/06/04 13:34:23;;;;;;;10.77;7.32;;;;;;;;;;5019443;28;20075;-65
2021/06/04 13:36:50;;;;;;;12.65;7.00;;;;;;;;;;5025664;28;20379;-65
2021/06/04 13:39:24;;;;;;;9.80;6.38;;;;;;;;;;5028781;28;20378;-64
2021/06/04 13:41:51;;;;;;;13.20;6.93;;;;;;;;;;5025541;28;20658;-64
2021/06/04 13:44:21;;;;;;;12.18;6.22;;;;;;;;;;5026005;28;20025;-64
2021/06/04 13:47:13;;;;;;;10.02;6.25;;;;;;;;;;5040105;28;20040;-64
2021/06/04 13:49:50;;;;;;;11.25;6.45;;;;;;;;;;4956684;28;20043;-64
2021/06/04 13:52:21;;;;;;;10.90;6.88;;;;;;;;;;4949118;28;20034;-65
2021/06/04 13:54:57;;;;;;;9.43;6.05;;;;;;;;;;4956636;28;20038;-64
2021/06/04 13:57:40;;;;;;;9.25;6.05;;;;;;;;;;4957437;28;20039;-64
2021/06/04 14:00:24;;;;;;;12.43;6.95;;;;;;;;;;4947726;28;20039;-64
2021/06/04 14:02:50;;;;;;;12.95;5.78;;;;;;;;;;4939866;28;20103;-64
2021/06/04 14:05:29;;;;;;;12.30;6.93;;;;;;;;;;4924236;29;20856;-64
2021/06/04 14:08:02;;;;;;;12.00;6.35;;;;;;;;;;4927184;29;20035;-64
2021/06/04 14:10:33;;;;;;;10.77;6.22;;;;;;;;;;4936632;29;20110;-64
2021/06/04 14:13:00;;;;;;;10.80;6.43;;;;;;;;;;4934241;29;20192;-64
2021/06/04 14:15:28;;;;;;;11.35;6.97;;;;;;;;;;4939073;29;20039;-64
2021/06/04 14:17:53;;;;;;;11.02;6.28;;;;;;;;;;4943684;29;20030;-64
2021/06/04 14:20:51;;;;;;;11.23;6.78;;;;;;;;;;4940669;29;20031;-64
2021/06/04 14:23:21;;;;;;;11.50;5.40;;;;;;;;;;4894254;29;20037;-64
2021/06/04 14:25:47;;;;;;;10.77;6.25;;;;;;;;;;4915853;28;20487;-64
2021/06/04 14:28:15;;;;;;;8.82;5.65;;;;;;;;;;4948987;29;20076;-64
2021/06/04 14:30:49;;;;;;;16.10;7.90;;;;;;;;;;4949985;28;20120;-64
2021/06/04 14:33:28;;;;;;;12.38;7.47;;;;;;;;;;4945033;28;20049;-64
2021/06/04 14:36:11;;;;;;;11.88;7.40;;;;;;;;;;4948154;28;20038;-64
2021/06/04 14:38:41;;;;;;;17.00;7.45;;;;;;;;;;4943838;28;20020;-64
2021/06/04 14:41:10;;;;;;;12.25;7.57;;;;;;;;;;4947526;28;20598;-64
2021/06/04 14:43:36;;;;;;;17.70;7.72;;;;;;;;;;4961391;28;20034;-64